createdAt,value
2023-02-26T00:00:50.535Z,-3.24
2023-02-26T00:01:50.523Z,-3.25
2023-02-26T00:02:50.470Z,-3.25
2023-02-26T00:03:50.246Z,-3.29
2023-02-26T00:04:50.526Z,-3.19
2023-02-26T00:05:50.215Z,-3.19
2023-02-26T00:06:50.548Z,-3.19
2023-02-26T00:07:50.396Z,-3.24
2023-02-26T00:08:49.925Z,-3.19
2023-02-26T00:09:50.118Z,-3.21
2023-02-26T00:10:50.313Z,-3.29
2023-02-26T00:11:49.808Z,-3.25
2023-02-26T00:12:50.046Z,-3.25
2023-02-26T00:13:50.482Z,-3.3
2023-02-26T00:14:49.798Z,-3.29
2023-02-26T00:15:50.237Z,-3.25
2023-02-26T00:16:49.864Z,-3.24
2023-02-26T00:17:49.914Z,-3.19
2023-02-26T00:18:50.200Z,-3.19
2023-02-26T00:19:50.129Z,-3.24
2023-02-26T00:20:50.181Z,-3.15
2023-02-26T00:21:50.088Z,-3.24
2023-02-26T00:22:50.067Z,-3.24
2023-02-26T00:23:49.801Z,-3.21
2023-02-26T00:24:49.506Z,-3.28
2023-02-26T00:25:50.007Z,-3.28
2023-02-26T00:26:49.744Z,-3.29
2023-02-26T00:27:49.968Z,-3.22
2023-02-26T00:28:49.952Z,-3.18
2023-02-26T00:29:49.920Z,-3.18
2023-02-26T00:30:49.769Z,-3.24
2023-02-26T00:31:50.268Z,-3.21
2023-02-26T00:32:49.655Z,-3.28
2023-02-26T00:33:49.850Z,-3.28
2023-02-26T00:34:49.549Z,-3.22
2023-02-26T00:35:49.803Z,-3.15
2023-02-26T00:36:49.846Z,-3.28
2023-02-26T00:37:49.729Z,-3.18
2023-02-26T00:38:49.206Z,-3.24
2023-02-26T00:39:49.703Z,-3.18
2023-02-26T00:40:49.693Z,-3.25
2023-02-26T00:41:49.764Z,-3.24
2023-02-26T00:42:49.408Z,-3.28
2023-02-26T00:43:49.356Z,-3.29
2023-02-26T00:44:49.602Z,-3.21
2023-02-26T00:45:49.526Z,-3.25
2023-02-26T00:46:49.555Z,-3.29
2023-02-26T00:47:49.523Z,-3.24
2023-02-26T00:48:49.524Z,-3.28
2023-02-26T00:49:49.514Z,-3.25
2023-02-26T00:50:49.197Z,-3.28
2023-02-26T00:51:49.477Z,-3.28
2023-02-26T00:52:49.553Z,-3.22
2023-02-26T00:53:49.147Z,-3.25
2023-02-26T00:54:49.377Z,-3.28
2023-02-26T00:55:49.434Z,-3.3
2023-02-26T00:56:49.362Z,-3.24
2023-02-26T00:57:49.055Z,-3.25
2023-02-26T00:58:49.032Z,-3.29
2023-02-26T00:59:49.277Z,-3.29
2023-02-26T01:00:49.000Z,-3.28
2023-02-26T01:01:49.473Z,-3.3
2023-02-26T01:02:48.958Z,-3.29
2023-02-26T01:03:49.065Z,-3.24
2023-02-26T01:04:49.164Z,-3.3
2023-02-26T01:05:48.889Z,-3.29
2023-02-26T01:06:49.127Z,-3.28
2023-02-26T01:07:49.107Z,-3.28
2023-02-26T01:08:49.155Z,-3.32
2023-02-26T01:09:49.050Z,-3.29
2023-02-26T01:10:48.787Z,-3.29
2023-02-26T01:11:49.012Z,-3.33
2023-02-26T01:12:49.017Z,-3.32
2023-02-26T01:13:48.717Z,-3.32
2023-02-26T01:14:48.716Z,-3.25
2023-02-26T01:15:49.041Z,-3.28
2023-02-26T01:16:48.657Z,-3.32
2023-02-26T01:17:48.626Z,-3.28
2023-02-26T01:18:48.618Z,-3.28
2023-02-26T01:19:48.873Z,-3.24
2023-02-26T01:20:48.834Z,-3.21
2023-02-26T01:21:48.279Z,-3.22
2023-02-26T01:22:48.776Z,-3.17
2023-02-26T01:23:48.760Z,-3.17
2023-02-26T01:24:48.943Z,-3.18
2023-02-26T01:25:48.451Z,-3.29
2023-02-26T01:26:48.738Z,-3.29
2023-02-26T01:27:48.418Z,-3.21
2023-02-26T01:28:48.390Z,-3.32
2023-02-26T01:29:48.624Z,-3.36
2023-02-26T01:30:48.955Z,-3.28
2023-02-26T01:31:49.007Z,-3.25
2023-02-26T01:32:48.811Z,-3.3
2023-02-26T01:33:48.628Z,-3.33
2023-02-26T01:35:48.518Z,-3.35
2023-02-26T01:36:47.963Z,-3.38
2023-02-26T01:37:48.447Z,-3.4
2023-02-26T01:38:48.197Z,-3.38
2023-02-26T01:39:48.612Z,-3.39
2023-02-26T01:40:48.476Z,-3.39
2023-02-26T01:41:48.383Z,-3.42
2023-02-26T01:42:48.372Z,-3.39
2023-02-26T01:43:48.092Z,-3.42
2023-02-26T01:44:48.335Z,-3.42
2023-02-26T01:45:48.294Z,-3.42
2023-02-26T01:46:48.216Z,-3.39
2023-02-26T01:47:48.242Z,-3.43
2023-02-26T01:48:48.218Z,-3.43
2023-02-26T01:49:48.261Z,-3.42
2023-02-26T01:50:48.178Z,-3.48
2023-02-26T01:51:47.913Z,-3.54
2023-02-26T01:52:47.899Z,-3.5
2023-02-26T01:53:47.911Z,-3.51
2023-02-26T01:54:48.110Z,-3.48
2023-02-26T01:55:47.555Z,-3.5
2023-02-26T01:56:48.147Z,-3.51
2023-02-26T01:57:47.775Z,-3.51
2023-02-26T01:58:47.493Z,-3.58
2023-02-26T01:59:47.978Z,-3.51
2023-02-26T02:00:47.970Z,-3.5
2023-02-26T02:01:47.686Z,-3.54
2023-02-26T02:02:48.372Z,-3.48
2023-02-26T02:03:47.845Z,-3.5
2023-02-26T02:04:47.876Z,-3.51
2023-02-26T02:05:47.405Z,-3.51
2023-02-26T02:06:47.572Z,-3.5
2023-02-26T02:07:47.560Z,-3.48
2023-02-26T02:08:47.828Z,-3.53
2023-02-26T02:09:47.732Z,-3.51
2023-02-26T02:10:47.758Z,-3.5
2023-02-26T02:11:47.483Z,-3.5
2023-02-26T02:12:47.804Z,-3.53
2023-02-26T02:13:47.690Z,-3.51
2023-02-26T02:14:47.439Z,-3.51
2023-02-26T02:15:47.683Z,-3.48
2023-02-26T02:16:47.398Z,-3.47
2023-02-26T02:17:47.634Z,-3.57
2023-02-26T02:18:47.567Z,-3.56
2023-02-26T02:19:47.540Z,-3.54
2023-02-26T02:20:47.355Z,-3.57
2023-02-26T02:21:47.241Z,-3.57
2023-02-26T02:22:47.482Z,-3.69
2023-02-26T02:23:47.724Z,-3.61
2023-02-26T02:24:47.331Z,-3.66
2023-02-26T02:25:47.401Z,-3.61
2023-02-26T02:26:47.285Z,-3.69
2023-02-26T02:27:47.360Z,-3.61
2023-02-26T02:28:47.485Z,-3.56
2023-02-26T02:29:47.069Z,-3.61
2023-02-26T02:30:47.659Z,-3.53
2023-02-26T02:31:48.072Z,-3.58
2023-02-26T02:32:47.707Z,-3.56
2023-02-26T02:33:47.235Z,-3.48
2023-02-26T02:34:46.961Z,-3.48
2023-02-26T02:35:47.044Z,-3.51
2023-02-26T02:36:46.910Z,-3.54
2023-02-26T02:37:46.895Z,-3.5
2023-02-26T02:38:47.315Z,-3.4
2023-02-26T02:39:47.146Z,-3.4
2023-02-26T02:40:47.085Z,-3.43
2023-02-26T02:41:47.222Z,-3.42
2023-02-26T02:42:46.806Z,-3.45
2023-02-26T02:43:47.032Z,-3.4
2023-02-26T02:44:47.079Z,-3.4
2023-02-26T02:45:47.212Z,-3.51
2023-02-26T02:46:46.896Z,-3.47
2023-02-26T02:47:46.692Z,-3.42
2023-02-26T02:48:46.963Z,-3.45
2023-02-26T02:49:46.919Z,-3.56
2023-02-26T02:50:46.354Z,-3.56
2023-02-26T02:51:46.599Z,-3.51
2023-02-26T02:52:46.568Z,-3.48
2023-02-26T02:53:46.819Z,-3.48
2023-02-26T02:54:46.585Z,-3.56
2023-02-26T02:55:46.774Z,-3.5
2023-02-26T02:56:46.755Z,-3.48
2023-02-26T02:57:46.467Z,-3.47
2023-02-26T02:58:46.696Z,-3.5
2023-02-26T02:59:46.667Z,-3.45
2023-02-26T03:00:46.981Z,-3.47
2023-02-26T03:01:46.627Z,-3.48
2023-02-26T03:02:46.524Z,-3.47
2023-02-26T03:03:46.586Z,-3.48
2023-02-26T03:04:46.190Z,-3.45
2023-02-26T03:05:46.283Z,-3.43
2023-02-26T03:06:46.520Z,-3.39
2023-02-26T03:07:46.497Z,-3.38
2023-02-26T03:08:46.246Z,-3.47
2023-02-26T03:09:46.469Z,-3.45
2023-02-26T03:10:46.453Z,-3.47
2023-02-26T03:11:46.432Z,-3.47
2023-02-26T03:12:46.393Z,-3.53
2023-02-26T03:13:46.225Z,-3.42
2023-02-26T03:14:46.372Z,-3.48
2023-02-26T03:15:46.069Z,-3.48
2023-02-26T03:16:46.604Z,-3.39
2023-02-26T03:17:46.293Z,-3.5
2023-02-26T03:18:46.270Z,-3.51
2023-02-26T03:19:46.242Z,-3.4
2023-02-26T03:20:46.237Z,-3.38
2023-02-26T03:21:46.224Z,-3.43
2023-02-26T03:22:45.925Z,-3.35
2023-02-26T03:23:45.938Z,-3.43
2023-02-26T03:24:45.875Z,-3.43
2023-02-26T03:25:45.857Z,-3.45
2023-02-26T03:26:45.854Z,-3.4
2023-02-26T03:27:45.829Z,-3.45
2023-02-26T03:28:46.043Z,-3.47
2023-02-26T03:29:45.767Z,-3.38
2023-02-26T03:30:46.231Z,-3.4
2023-02-26T03:31:46.220Z,-3.47
2023-02-26T03:32:46.176Z,-3.42
2023-02-26T03:49:47.852Z,-3.43
2023-02-26T03:50:47.795Z,-3.54
2023-02-26T03:51:47.475Z,-3.39
2023-02-26T03:52:47.455Z,-3.51
2023-02-26T03:53:47.444Z,-3.42
2023-02-26T03:54:47.668Z,-3.56
2023-02-26T03:55:47.388Z,-3.48
2023-02-26T03:56:47.714Z,-3.47
2023-02-26T03:57:47.335Z,-3.47
2023-02-26T03:58:47.580Z,-3.5
2023-02-26T03:59:47.319Z,-3.54
2023-02-26T04:00:48.104Z,-3.51
2023-02-26T04:01:47.555Z,-3.54
2023-02-26T04:02:47.491Z,-3.38
2023-02-26T04:03:47.464Z,-3.4
2023-02-26T04:04:47.622Z,-3.43
2023-02-26T04:05:47.534Z,-3.43
2023-02-26T04:06:46.904Z,-3.32
2023-02-26T04:07:47.115Z,-3.35
2023-02-26T04:08:47.095Z,-3.38
2023-02-26T04:09:47.329Z,-3.4
2023-02-26T04:10:47.304Z,-3.39
2023-02-26T04:11:47.284Z,-3.43
2023-02-26T04:12:47.374Z,-3.43
2023-02-26T04:13:47.254Z,-3.35
2023-02-26T04:14:46.971Z,-3.33
2023-02-26T04:15:46.964Z,-3.32
2023-02-26T04:16:47.215Z,-3.32
2023-02-26T04:17:46.898Z,-3.25
2023-02-26T04:18:46.901Z,-3.25
2023-02-26T04:19:47.123Z,-3.28
2023-02-26T04:20:46.837Z,-3.32
2023-02-26T04:21:47.159Z,-3.33
2023-02-26T04:22:46.818Z,-3.24
2023-02-26T04:23:46.529Z,-3.25
2023-02-26T04:24:47.031Z,-3.15
2023-02-26T04:25:46.756Z,-3.17
2023-02-26T04:26:46.705Z,-3.12
2023-02-26T04:27:47.512Z,-3.18
2023-02-26T04:28:47.501Z,-3.15
2023-02-26T04:29:47.230Z,-3.17
2023-02-26T04:30:47.142Z,-3.09
2023-02-26T04:31:48.044Z,-3.17
2023-02-26T04:32:47.421Z,-3.14
2023-02-26T04:33:47.167Z,-3.15
2023-02-26T04:34:47.127Z,-3.12
2023-02-26T04:35:46.821Z,-3.18
2023-02-26T04:36:46.819Z,-3.14
2023-02-26T04:37:47.394Z,-3.14
2023-02-26T04:38:47.298Z,-3.15
2023-02-26T04:39:47.008Z,-3.14
2023-02-26T04:40:46.980Z,-3.17
2023-02-26T04:41:46.948Z,-3.12
2023-02-26T04:42:49.737Z,-3.11
2023-02-26T04:43:46.990Z,-3.18
2023-02-26T04:44:46.896Z,-3.21
2023-02-26T04:45:46.862Z,-3.15
2023-02-26T04:46:46.934Z,-3.24
2023-02-26T04:47:46.819Z,-3.14
2023-02-26T04:48:47.054Z,-3.15
2023-02-26T04:49:46.783Z,-3.25
2023-02-26T04:50:46.566Z,-3.22
2023-02-26T04:51:47.013Z,-3.15
2023-02-26T04:52:46.971Z,-3.22
2023-02-26T04:53:47.037Z,-3.24
2023-02-26T04:54:46.934Z,-3.19
2023-02-26T04:55:46.667Z,-3.15
2023-02-26T04:56:46.372Z,-3.22
2023-02-26T04:57:46.607Z,-3.19
2023-02-26T04:58:46.601Z,-3.18
2023-02-26T04:59:46.581Z,-3.17
2023-02-26T05:00:46.796Z,-3.15
2023-02-26T05:01:47.055Z,-3.22
2023-02-26T05:02:46.766Z,-3.17
2023-02-26T05:03:46.749Z,-3.25
2023-02-26T05:04:46.655Z,-3.17
2023-02-26T05:05:46.441Z,-3.07
2023-02-26T05:06:46.663Z,-3.12
2023-02-26T05:07:46.658Z,-3.21
2023-02-26T05:08:46.647Z,-3.21
2023-02-26T05:09:46.721Z,-3.17
2023-02-26T05:10:46.367Z,-3.22
2023-02-26T05:11:46.312Z,-3.21
2023-02-26T05:12:46.536Z,-3.32
2023-02-26T05:13:46.532Z,-3.24
2023-02-26T05:14:45.999Z,-3.25
2023-02-26T05:15:46.593Z,-3.19
2023-02-26T05:16:46.464Z,-3.24
2023-02-26T05:17:46.179Z,-3.15
2023-02-26T05:18:46.444Z,-3.28
2023-02-26T05:19:46.154Z,-3.22
2023-02-26T05:20:46.115Z,-3.19
2023-02-26T05:21:46.103Z,-3.21
2023-02-26T05:22:46.084Z,-3.22
2023-02-26T05:23:46.054Z,-3.22
2023-02-26T05:24:46.291Z,-3.21
2023-02-26T05:25:46.340Z,-3.19
2023-02-26T05:26:46.004Z,-3.22
2023-02-26T05:27:46.233Z,-3.15
2023-02-26T05:28:46.226Z,-3.17
2023-02-26T05:29:46.185Z,-3.18
2023-02-26T05:30:46.035Z,-3.12
2023-02-26T05:31:46.622Z,-3.21
2023-02-26T05:32:45.608Z,-3.11
2023-02-26T05:33:45.853Z,-3.21
2023-02-26T05:34:46.084Z,-3.17
2023-02-26T05:35:46.056Z,-3.22
2023-02-26T05:36:45.775Z,-3.19
2023-02-26T05:37:46.013Z,-3.17
2023-02-26T05:38:45.492Z,-3.18
2023-02-26T05:39:45.718Z,-3.18
2023-02-26T05:40:45.698Z,-3.14
2023-02-26T05:41:46.003Z,-3.09
2023-02-26T05:42:45.909Z,-3.12
2023-02-26T05:43:45.632Z,-3.15
2023-02-26T05:44:45.871Z,-3.11
2023-02-26T05:45:45.834Z,-3.09
2023-02-26T05:46:45.730Z,-3.06
2023-02-26T05:47:45.664Z,-3.04
2023-02-26T05:48:48.176Z,-3.09
2023-02-26T05:49:45.496Z,-3.14
2023-02-26T05:50:45.232Z,-3.18
2023-02-26T05:51:45.489Z,-3.07
2023-02-26T05:52:45.680Z,-3.18
2023-02-26T05:53:45.419Z,-3.15
2023-02-26T05:54:45.646Z,-3.11
2023-02-26T05:55:45.621Z,-3.18
2023-02-26T05:56:45.609Z,-3.19
2023-02-26T05:57:45.657Z,-3.15
2023-02-26T05:58:45.330Z,-3.11
2023-02-26T05:59:45.552Z,-3.12
2023-02-26T06:00:45.523Z,-3.12
2023-02-26T06:01:45.364Z,-3.18
2023-02-26T06:02:45.359Z,-3.12
2023-02-26T06:03:45.473Z,-3.17
2023-02-26T06:04:45.434Z,-3.09
2023-02-26T06:05:45.410Z,-3.14
2023-02-26T06:06:45.396Z,-3.15
2023-02-26T06:07:45.969Z,-3.06
2023-02-26T06:08:45.153Z,-3.14
2023-02-26T06:09:45.358Z,-3.07
2023-02-26T06:10:45.062Z,-3.12
2023-02-26T06:11:45.357Z,-3.11
2023-02-26T06:12:45.281Z,-3
2023-02-26T06:13:45.317Z,-3.01
2023-02-26T06:14:45.215Z,-3.03
2023-02-26T06:15:44.714Z,-3.06
2023-02-26T06:16:45.409Z,-3.01
2023-02-26T06:17:45.836Z,-3.12
2023-02-26T06:18:45.162Z,-3.04
2023-02-26T06:19:44.850Z,-3.03
2023-02-26T06:20:44.839Z,-3.01
2023-02-26T06:21:45.064Z,-3
2023-02-26T06:22:45.050Z,-2.96
2023-02-26T06:23:44.770Z,-2.99
2023-02-26T06:24:44.777Z,-2.99
2023-02-26T06:25:44.728Z,-2.99
2023-02-26T06:26:44.955Z,-3.01
2023-02-26T06:27:44.976Z,-3
2023-02-26T06:28:44.675Z,-2.97
2023-02-26T06:29:44.991Z,-2.94
2023-02-26T06:30:45.031Z,-2.88
2023-02-26T06:31:45.286Z,-2.91
2023-02-26T06:32:44.848Z,-3.01
2023-02-26T06:33:44.579Z,-2.97
2023-02-26T06:34:44.530Z,-2.97
2023-02-26T06:35:44.773Z,-3.01
2023-02-26T06:36:44.748Z,-2.97
2023-02-26T06:37:44.704Z,-3
2023-02-26T06:38:44.932Z,-2.94
2023-02-26T06:39:44.647Z,-2.96
2023-02-26T06:40:44.640Z,-3
2023-02-26T06:41:44.383Z,-3
2023-02-26T06:42:44.851Z,-2.93
2023-02-26T06:43:44.826Z,-2.86
2023-02-26T06:44:44.548Z,-2.88
2023-02-26T06:45:45.041Z,-2.9
2023-02-26T06:46:44.749Z,-2.83
2023-02-26T06:47:44.495Z,-2.79
2023-02-26T06:48:44.447Z,-2.83
2023-02-26T06:49:44.451Z,-2.9
2023-02-26T06:50:44.421Z,-2.82
2023-02-26T06:51:44.665Z,-2.83
2023-02-26T06:52:44.388Z,-2.85
2023-02-26T06:53:44.115Z,-2.81
2023-02-26T06:54:44.599Z,-2.78
2023-02-26T06:55:44.571Z,-2.85
2023-02-26T06:56:44.551Z,-2.73
2023-02-26T06:57:44.623Z,-2.7
2023-02-26T06:58:44.630Z,-2.7
2023-02-26T06:59:44.721Z,-2.72
2023-02-26T07:00:44.934Z,-2.67
2023-02-26T07:01:44.944Z,-2.64
2023-02-26T07:02:44.923Z,-2.58
2023-02-26T07:03:44.261Z,-2.58
2023-02-26T07:04:44.742Z,-2.61
2023-02-26T07:05:44.455Z,-2.67
2023-02-26T07:06:45.798Z,-2.53
2023-02-26T07:07:44.660Z,-2.49
2023-02-26T07:08:44.443Z,-2.53
2023-02-26T07:09:46.829Z,-2.43
2023-02-26T07:10:44.605Z,-2.54
2023-02-26T07:11:44.608Z,-2.39
2023-02-26T07:12:44.592Z,-2.39
2023-02-26T07:13:44.048Z,-2.37
2023-02-26T07:14:44.283Z,-2.37
2023-02-26T07:15:46.162Z,-2.3
2023-02-26T07:16:44.366Z,-2.36
2023-02-26T07:17:44.563Z,-2.39
2023-02-26T07:18:44.234Z,-2.32
2023-02-26T07:19:44.448Z,-2.42
2023-02-26T07:20:44.174Z,-2.32
2023-02-26T07:21:44.473Z,-2.4
2023-02-26T07:22:44.104Z,-2.39
2023-02-26T07:23:44.352Z,-2.4
2023-02-26T07:24:44.317Z,-2.32
2023-02-26T07:25:43.778Z,-2.23
2023-02-26T07:26:44.272Z,-2.25
2023-02-26T07:27:46.003Z,-2.27
2023-02-26T07:28:43.970Z,-2.21
2023-02-26T07:29:43.954Z,-2.23
2023-02-26T07:30:44.360Z,-2.24
2023-02-26T07:31:44.476Z,-2.14
2023-02-26T07:32:44.156Z,-2.12
2023-02-26T07:33:44.215Z,-2.02
2023-02-26T07:34:44.104Z,-2.03
2023-02-26T07:35:44.086Z,-1.89
2023-02-26T07:36:44.079Z,-1.84
2023-02-26T07:37:44.036Z,-1.85
2023-02-26T07:38:44.744Z,-1.84
2023-02-26T07:39:43.763Z,-1.81
2023-02-26T07:40:43.734Z,-1.79
2023-02-26T07:41:43.964Z,-1.78
2023-02-26T07:42:43.956Z,-1.84
2023-02-26T07:43:43.658Z,-1.7
2023-02-26T07:44:43.895Z,-1.74
2023-02-26T07:45:43.890Z,-1.88
2023-02-26T07:46:43.930Z,-1.81
2023-02-26T07:47:43.823Z,-1.7
2023-02-26T07:48:43.806Z,-1.71
2023-02-26T07:49:43.867Z,-1.61
2023-02-26T07:50:43.770Z,-1.5
2023-02-26T07:51:43.482Z,-1.48
2023-02-26T07:52:43.220Z,-1.42
2023-02-26T07:53:43.716Z,-1.42
2023-02-26T07:54:43.693Z,-1.32
2023-02-26T07:55:43.684Z,-1.43
2023-02-26T07:56:43.382Z,-1.46
2023-02-26T07:57:43.616Z,-1.34
2023-02-26T07:58:43.377Z,-1.42
2023-02-26T07:59:43.588Z,-1.37
2023-02-26T08:00:43.579Z,-1.37
2023-02-26T08:01:43.676Z,-1.37
2023-02-26T08:02:43.288Z,-1.42
2023-02-26T08:03:43.520Z,-1.48
2023-02-26T08:04:43.490Z,-1.43
2023-02-26T08:05:43.532Z,-1.49
2023-02-26T08:06:43.467Z,-1.56
2023-02-26T08:07:43.479Z,-1.58
2023-02-26T08:08:43.158Z,-1.56
2023-02-26T08:09:43.372Z,-1.52
2023-02-26T08:10:46.441Z,-1.56
2023-02-26T08:11:43.091Z,-1.58
2023-02-26T08:12:42.806Z,-1.48
2023-02-26T08:13:42.790Z,-1.5
2023-02-26T08:14:43.020Z,-1.56
2023-02-26T08:15:43.245Z,-1.52
2023-02-26T08:16:43.295Z,-1.6
2023-02-26T08:17:43.215Z,-1.61
2023-02-26T08:18:43.185Z,-1.7
2023-02-26T08:19:42.940Z,-1.73
2023-02-26T08:20:42.934Z,-1.7
2023-02-26T08:21:43.204Z,-1.74
2023-02-26T08:22:42.857Z,-1.71
2023-02-26T08:23:42.852Z,-1.63
2023-02-26T08:24:43.065Z,-1.55
2023-02-26T08:25:42.797Z,-1.52
2023-02-26T08:26:43.026Z,-1.46
2023-02-26T08:27:43.038Z,-1.52
2023-02-26T08:28:43.004Z,-1.35
2023-02-26T08:29:42.988Z,-1.46
2023-02-26T08:30:43.064Z,-1.53
2023-02-26T08:31:43.350Z,-1.42
2023-02-26T08:32:42.876Z,-1.31
2023-02-26T08:33:42.629Z,-1.37
2023-02-26T08:34:42.942Z,-1.31
2023-02-26T08:35:42.918Z,-1.25
2023-02-26T08:36:42.905Z,-1.3
2023-02-26T08:37:42.972Z,-1.25
2023-02-26T08:38:42.602Z,-1.06
2023-02-26T08:39:42.322Z,-1.07
2023-02-26T08:40:42.813Z,-1.01
2023-02-26T08:41:42.289Z,-1.07
2023-02-26T08:42:42.767Z,-1.13
2023-02-26T08:43:42.496Z,-1.22
2023-02-26T08:44:42.733Z,-1.24
2023-02-26T08:45:42.716Z,-1.28
2023-02-26T08:46:42.670Z,-1.31
2023-02-26T08:47:59.458Z,-1.37
2023-02-26T08:48:42.642Z,-1.27
2023-02-26T08:49:42.374Z,-1.43
2023-02-26T08:50:42.620Z,-1.35
2023-02-26T08:51:42.590Z,-1.34
2023-02-26T08:52:42.316Z,-1.34
2023-02-26T08:53:42.684Z,-1.38
2023-02-26T08:54:42.310Z,-1.37
2023-02-26T08:55:42.285Z,-1.42
2023-02-26T08:56:42.507Z,-1.25
2023-02-26T08:57:42.464Z,-1.11
2023-02-26T08:58:42.470Z,-1.21
2023-02-26T08:59:42.426Z,-1.11
2023-02-26T09:00:41.899Z,-1.27
2023-02-26T09:01:42.555Z,-1.21
2023-02-26T09:02:42.634Z,-1.22
2023-02-26T09:03:42.405Z,-1.07
2023-02-26T09:04:42.455Z,-1.11
2023-02-26T09:05:41.799Z,-1.07
2023-02-26T09:06:42.038Z,-0.92
2023-02-26T09:07:42.013Z,-0.93
2023-02-26T09:08:41.989Z,-1.16
2023-02-26T09:09:42.346Z,-1.17
2023-02-26T09:10:43.405Z,-1.24
2023-02-26T09:11:41.756Z,-1.34
2023-02-26T09:12:42.177Z,-1.46
2023-02-26T09:13:42.146Z,-1.5
2023-02-26T09:14:42.139Z,-1.49
2023-02-26T09:15:42.096Z,-1.4
2023-02-26T09:16:42.451Z,-1.42
2023-02-26T09:17:42.058Z,-1.45
2023-02-26T09:18:41.788Z,-1.37
2023-02-26T09:19:42.023Z,-1.38
2023-02-26T09:20:41.737Z,-1.31
2023-02-26T09:21:41.721Z,-1.4
2023-02-26T09:22:41.983Z,-1.31
2023-02-26T09:23:41.677Z,-1.27
2023-02-26T09:24:41.707Z,-1.27
2023-02-26T09:25:42.004Z,-1.14
2023-02-26T09:26:41.634Z,-1.17
2023-02-26T09:27:41.865Z,-1.17
2023-02-26T09:28:41.862Z,-1.1
2023-02-26T09:29:41.804Z,-1.07
2023-02-26T09:30:41.808Z,-0.99
2023-02-26T09:31:42.398Z,-0.95
2023-02-26T09:32:41.906Z,-0.95
2023-02-26T09:33:41.479Z,-0.96
2023-02-26T09:34:41.475Z,-0.98
2023-02-26T09:35:41.430Z,-0.93
2023-02-26T09:36:41.423Z,-0.85
2023-02-26T09:37:41.413Z,-0.91
2023-02-26T09:38:41.625Z,-0.82
2023-02-26T09:39:41.636Z,-0.79
2023-02-26T09:40:41.604Z,-0.77
2023-02-26T09:41:41.643Z,-0.64
2023-02-26T09:42:41.543Z,-0.62
2023-02-26T09:43:41.523Z,-0.69
2023-02-26T09:44:41.502Z,-0.66
2023-02-26T09:45:43.572Z,-0.62
2023-02-26T09:46:40.950Z,-0.56
2023-02-26T09:47:41.198Z,-0.56
2023-02-26T09:48:41.170Z,-0.61
2023-02-26T09:49:41.408Z,-0.58
2023-02-26T09:50:41.192Z,-0.82
2023-02-26T09:51:41.112Z,-0.85
2023-02-26T09:52:41.349Z,-0.84
2023-02-26T09:53:41.404Z,-0.85
2023-02-26T09:54:41.118Z,-0.89
2023-02-26T09:55:41.123Z,-0.87
2023-02-26T09:56:41.282Z,-0.89
2023-02-26T09:57:41.325Z,-0.89
2023-02-26T09:58:41.238Z,-0.87
2023-02-26T09:59:41.211Z,-0.82
2023-02-26T10:00:41.201Z,-1.01
2023-02-26T10:01:41.240Z,-0.93
2023-02-26T10:02:40.886Z,-0.98
2023-02-26T10:03:40.963Z,-0.99
2023-02-26T10:04:41.107Z,-0.95
2023-02-26T10:05:40.840Z,-1.01
2023-02-26T10:06:41.068Z,-0.92
2023-02-26T10:07:41.073Z,-0.85
2023-02-26T10:08:41.028Z,-0.8
2023-02-26T10:09:40.757Z,-0.77
2023-02-26T10:10:40.482Z,-0.61
2023-02-26T10:11:41.004Z,-0.58
2023-02-26T10:12:40.703Z,-0.38
2023-02-26T10:13:59.715Z,-0.4
2023-02-26T10:14:40.654Z,-0.36
2023-02-26T10:15:40.885Z,-0.28
2023-02-26T10:16:40.790Z,-0.25
2023-02-26T10:17:40.915Z,-0.27
2023-02-26T10:18:40.599Z,-0.31
2023-02-26T10:19:40.802Z,-0.34
2023-02-26T10:20:41.003Z,-0.43
2023-02-26T10:21:40.527Z,-0.4
2023-02-26T10:22:40.263Z,-0.51
2023-02-26T10:23:43.390Z,-0.54
2023-02-26T10:24:40.726Z,-0.52
2023-02-26T10:25:40.694Z,-0.4
2023-02-26T10:26:40.420Z,-0.49
2023-02-26T10:27:40.388Z,-0.52
2023-02-26T10:28:40.661Z,-0.38
2023-02-26T10:29:40.697Z,-0.4
2023-02-26T10:30:40.572Z,-0.18
2023-02-26T10:31:40.458Z,-0.04
2023-02-26T10:32:40.941Z,-0.04
2023-02-26T10:33:40.016Z,0.05
2023-02-26T10:34:40.522Z,0.1
2023-02-26T10:35:40.240Z,0.1
2023-02-26T10:36:40.202Z,0.13
2023-02-26T10:37:40.210Z,0.03
2023-02-26T10:38:40.440Z,0.08
2023-02-26T10:39:40.420Z,0.2
2023-02-26T10:40:40.396Z,0.19
2023-02-26T10:41:39.853Z,0.26
2023-02-26T10:42:40.352Z,0.2
2023-02-26T10:43:40.393Z,0.19
2023-02-26T10:44:40.303Z,0.27
2023-02-26T10:45:40.618Z,0.23
2023-02-26T10:46:39.754Z,0.21
2023-02-26T10:47:40.243Z,0.2
2023-02-26T10:48:39.968Z,0.14
2023-02-26T10:49:40.232Z,-0.04
2023-02-26T10:50:39.957Z,0.01
2023-02-26T10:51:39.952Z,-0.05
2023-02-26T10:52:39.895Z,-0.07
2023-02-26T10:53:42.829Z,-0.16
2023-02-26T10:54:39.876Z,-0.22
2023-02-26T10:55:40.127Z,-0.22
2023-02-26T10:56:39.819Z,-0.22
2023-02-26T10:57:40.074Z,-0.2
2023-02-26T10:58:39.787Z,-0.31
2023-02-26T10:59:40.032Z,-0.38
2023-02-26T11:00:40.145Z,-0.52
2023-02-26T11:01:40.227Z,-0.55
2023-02-26T11:02:39.935Z,-0.56
2023-02-26T11:03:39.941Z,-0.73
2023-02-26T11:04:39.924Z,-0.74
2023-02-26T11:05:39.901Z,-0.85
2023-02-26T11:06:39.884Z,-0.93
2023-02-26T11:07:39.853Z,-0.98
2023-02-26T11:08:39.836Z,-1.06
2023-02-26T11:09:39.834Z,-1.13
2023-02-26T11:10:39.797Z,-0.92
2023-02-26T11:11:39.521Z,-0.85
2023-02-26T11:12:39.755Z,-0.95
2023-02-26T11:13:39.482Z,-0.96
2023-02-26T11:14:39.728Z,-0.96
2023-02-26T11:15:39.677Z,-0.93
2023-02-26T11:16:39.429Z,-0.98
2023-02-26T11:17:39.734Z,-0.85
2023-02-26T11:18:39.456Z,-0.85
2023-02-26T11:19:39.360Z,-0.79
2023-02-26T11:20:39.605Z,-0.73
2023-02-26T11:21:39.575Z,-0.59
2023-02-26T11:22:39.301Z,-0.69
2023-02-26T11:23:39.287Z,-0.61
2023-02-26T11:24:39.674Z,-0.59
2023-02-26T11:25:40.986Z,-0.62
2023-02-26T11:26:39.654Z,-0.52
2023-02-26T11:27:39.622Z,-0.55
2023-02-26T11:28:39.345Z,-0.69
2023-02-26T11:29:39.573Z,-0.56
2023-02-26T11:30:39.399Z,-0.62
2023-02-26T11:31:41.714Z,-0.56
2023-02-26T11:32:39.572Z,-0.55
2023-02-26T11:33:39.603Z,-0.48
2023-02-26T11:34:39.528Z,-0.49
2023-02-26T11:35:39.460Z,-0.56
2023-02-26T11:36:39.427Z,-0.41
2023-02-26T11:37:39.174Z,-0.51
2023-02-26T11:38:39.187Z,-0.51
2023-02-26T11:39:39.132Z,-0.52
2023-02-26T11:40:39.359Z,-0.66
2023-02-26T11:41:39.078Z,-0.55
2023-02-26T11:42:39.050Z,-0.66
2023-02-26T11:43:38.788Z,-0.69
2023-02-26T11:44:39.036Z,-0.76
2023-02-26T11:45:39.289Z,-0.76
2023-02-26T11:46:39.040Z,-0.72
2023-02-26T11:47:38.968Z,-0.58
2023-02-26T11:48:38.940Z,-0.64
2023-02-26T11:49:39.264Z,-0.73
2023-02-26T11:50:38.645Z,-0.67
2023-02-26T11:51:39.132Z,-0.66
2023-02-26T11:52:40.156Z,-0.64
2023-02-26T11:53:40.141Z,-0.61
2023-02-26T11:54:39.852Z,-0.66
2023-02-26T11:55:39.810Z,-0.62
2023-02-26T11:56:39.637Z,-0.7
2023-02-26T11:57:39.786Z,-0.58
2023-02-26T11:58:39.815Z,-0.67
2023-02-26T11:59:39.999Z,-0.59
2023-02-26T12:00:39.711Z,-0.66
2023-02-26T12:01:39.689Z,-0.84
2023-02-26T12:02:40.267Z,-0.82
2023-02-26T12:03:39.615Z,-0.96
2023-02-26T12:04:39.646Z,-0.93
2023-02-26T12:05:40.003Z,-0.95
2023-02-26T12:06:39.594Z,-0.85
2023-02-26T12:07:39.335Z,-0.76
2023-02-26T12:08:39.823Z,-0.67
2023-02-26T12:09:39.549Z,-0.72
2023-02-26T12:10:39.771Z,-0.66
2023-02-26T12:11:39.754Z,-0.66
2023-02-26T12:12:39.719Z,-0.66
2023-02-26T12:13:39.457Z,-0.64
2023-02-26T12:14:39.442Z,-0.56
2023-02-26T12:15:39.717Z,-0.56
2023-02-26T12:16:39.796Z,-0.55
2023-02-26T12:17:39.700Z,-0.61
2023-02-26T12:18:39.381Z,-0.66
2023-02-26T12:19:39.068Z,-0.67
2023-02-26T12:20:39.561Z,-0.62
2023-02-26T12:21:39.618Z,-0.8
2023-02-26T12:22:39.268Z,-0.77
2023-02-26T12:23:39.266Z,-0.8
2023-02-26T12:24:38.974Z,-0.89
2023-02-26T12:25:38.956Z,-0.79
2023-02-26T12:26:39.478Z,-0.84
2023-02-26T12:27:39.435Z,-0.84
2023-02-26T12:28:39.148Z,-0.79
2023-02-26T12:29:39.406Z,-0.77
2023-02-26T12:30:39.233Z,-0.85
2023-02-26T12:31:39.578Z,-0.79
2023-02-26T12:32:39.298Z,-0.79
2023-02-26T12:33:39.038Z,-0.82
2023-02-26T12:34:39.033Z,-0.91
2023-02-26T12:35:39.301Z,-0.93
2023-02-26T12:36:53.267Z,-0.96
2023-02-26T12:37:39.001Z,-0.96
2023-02-26T12:38:38.940Z,-0.87
2023-02-26T12:39:38.676Z,-0.93
2023-02-26T12:40:38.905Z,-0.91
2023-02-26T12:41:39.130Z,-0.93
2023-02-26T12:42:38.614Z,-1.03
2023-02-26T12:43:40.301Z,-1.1
2023-02-26T12:44:39.091Z,-1.03
2023-02-26T12:45:39.078Z,-1.1
2023-02-26T12:46:39.013Z,-0.98
2023-02-26T12:47:39.042Z,-0.91
2023-02-26T12:48:39.036Z,-0.91
2023-02-26T12:49:38.743Z,-0.89
2023-02-26T12:50:38.445Z,-0.91
2023-02-26T12:51:38.679Z,-1.01
2023-02-26T12:52:38.959Z,-1.06
2023-02-26T12:53:38.972Z,-1.14
2023-02-26T12:54:41.316Z,-1.25
2023-02-26T12:55:38.619Z,-1.24
2023-02-26T12:56:38.586Z,-1.25
2023-02-26T12:57:38.823Z,-1.34
2023-02-26T12:58:38.799Z,-1.25
2023-02-26T12:59:38.780Z,-1.27
2023-02-26T13:00:38.568Z,-1.17
2023-02-26T13:01:38.802Z,-1.1
2023-02-26T13:02:38.717Z,-0.99
2023-02-26T13:03:38.555Z,-0.99
2023-02-26T13:04:38.427Z,-0.85
2023-02-26T13:05:38.420Z,-0.82
2023-02-26T13:06:38.650Z,-0.87
2023-02-26T13:07:38.463Z,-0.89
2023-02-26T13:08:38.743Z,-0.87
2023-02-26T13:09:38.628Z,-0.92
2023-02-26T13:10:38.552Z,-0.95
2023-02-26T13:11:38.527Z,-1.04
2023-02-26T13:12:38.275Z,-1.19